createdAt,value
2019-06-15T00:00:16.704Z,3.20
2019-06-15T00:02:49.054Z,3.13
2019-06-15T00:05:19.846Z,3.00
2019-06-15T00:07:50.565Z,3.40
2019-06-15T00:10:24.317Z,3.20
2019-06-15T00:12:55.541Z,3.27
2019-06-15T00:15:26.262Z,3.30
2019-06-15T00:17:56.959Z,3.00
2019-06-15T00:20:27.634Z,3.23
2019-06-15T00:22:58.265Z,3.57
2019-06-15T00:25:28.987Z,3.00
2019-06-15T00:28:00.146Z,2.93
2019-06-15T00:30:30.808Z,2.70
2019-06-15T00:33:01.568Z,3.20
2019-06-15T00:35:32.427Z,3.03
2019-06-15T00:38:03.193Z,2.50
2019-06-15T00:40:33.793Z,2.93
2019-06-15T00:43:04.338Z,3.10
2019-06-15T00:45:35.098Z,3.03
2019-06-15T00:48:06.053Z,3.00
2019-06-15T00:50:36.541Z,3.53
2019-06-15T00:53:07.309Z,3.17
2019-06-15T00:55:37.907Z,3.43
2019-06-15T00:58:09.002Z,3.10
2019-06-15T01:00:39.674Z,3.30
2019-06-15T01:03:11.206Z,3.13
2019-06-15T01:05:42.090Z,3.47
2019-06-15T01:08:12.942Z,3.10
2019-06-15T01:10:43.766Z,3.13
2019-06-15T01:13:14.618Z,3.07
2019-06-15T01:15:45.396Z,3.40
2019-06-15T01:18:16.093Z,3.53
2019-06-15T01:20:47.490Z,3.10
2019-06-15T01:23:18.258Z,3.30
2019-06-15T01:25:49.094Z,3.20
2019-06-15T01:28:19.765Z,3.07
2019-06-15T01:30:50.465Z,3.17
2019-06-15T01:33:21.106Z,3.40
2019-06-15T01:35:51.943Z,3.40
2019-06-15T01:38:22.990Z,3.70
2019-06-15T01:40:53.867Z,3.97
2019-06-15T01:43:25.605Z,3.77
2019-06-15T01:45:56.454Z,3.60
2019-06-15T01:48:27.291Z,3.57
2019-06-15T01:50:58.078Z,3.10
2019-06-15T01:53:28.701Z,3.50
2019-06-15T01:55:59.453Z,3.10
2019-06-15T01:58:30.081Z,3.33
2019-06-15T02:01:00.833Z,3.00
2019-06-15T02:03:31.771Z,3.50
2019-06-15T02:06:02.204Z,3.40
2019-06-15T02:08:33.062Z,3.30
2019-06-15T02:11:03.652Z,3.13
2019-06-15T02:13:34.206Z,3.23
2019-06-15T02:16:05.115Z,3.10
2019-06-15T02:18:35.801Z,3.23
2019-06-15T02:21:06.374Z,3.57
2019-06-15T02:23:36.935Z,3.07
2019-06-15T02:26:07.654Z,3.20
2019-06-15T02:28:38.537Z,3.20
2019-06-15T02:31:10.565Z,3.30
2019-06-15T02:33:41.475Z,3.17
2019-06-15T02:36:14.207Z,3.03
2019-06-15T02:38:44.689Z,3.10
2019-06-15T02:41:15.439Z,2.73
2019-06-15T02:43:46.214Z,3.50
2019-06-15T02:46:17.114Z,3.47
2019-06-15T02:48:47.763Z,3.70
2019-06-15T02:51:18.523Z,3.47
2019-06-15T02:53:49.334Z,3.57
2019-06-15T02:56:19.939Z,3.20
2019-06-15T02:58:50.541Z,3.40
2019-06-15T03:01:20.978Z,3.43
2019-06-15T03:03:51.604Z,3.40
2019-06-15T03:06:22.470Z,3.77
2019-06-15T03:08:53.440Z,3.27
2019-06-15T03:11:24.026Z,3.17
2019-06-15T03:13:56.066Z,3.30
2019-06-15T03:16:26.849Z,3.47
2019-06-15T03:18:57.504Z,3.90
2019-06-15T03:21:29.438Z,3.80
2019-06-15T03:26:20.093Z,3.47
2019-06-15T03:28:51.213Z,3.50
2019-06-15T03:31:21.858Z,3.33
2019-06-15T03:33:52.892Z,3.43
2019-06-15T03:36:23.771Z,3.17
2019-06-15T03:38:54.333Z,2.93
2019-06-15T03:41:25.413Z,3.10
2019-06-15T03:43:56.236Z,3.10
2019-06-15T03:46:27.490Z,3.20
2019-06-15T03:48:58.521Z,3.10
2019-06-15T03:51:29.406Z,3.20
2019-06-15T03:54:00.093Z,3.10
2019-06-15T03:56:30.929Z,3.07
2019-06-15T03:59:01.874Z,3.40
2019-06-15T04:01:38.573Z,3.17
2019-06-15T04:04:09.066Z,2.93
2019-06-15T04:06:39.954Z,3.00
2019-06-15T04:09:10.753Z,3.13
2019-06-15T04:11:41.359Z,3.00
2019-06-15T04:14:11.929Z,2.97
2019-06-15T04:16:42.650Z,2.53
2019-06-15T04:19:13.486Z,3.30
2019-06-15T04:21:44.351Z,3.07
2019-06-15T04:24:14.937Z,2.70
2019-06-15T04:26:45.519Z,2.70
2019-06-15T04:29:16.526Z,2.90
2019-06-15T04:31:47.141Z,2.80
2019-06-15T04:34:17.923Z,2.80
2019-06-15T04:36:48.674Z,2.40
2019-06-15T04:39:19.557Z,2.90
2019-06-15T04:41:50.482Z,3.03
2019-06-15T04:44:22.510Z,3.17
2019-06-15T04:46:53.632Z,3.00
2019-06-15T04:49:24.460Z,2.60
2019-06-15T04:51:55.134Z,2.93
2019-06-15T04:54:25.657Z,3.07
2019-06-15T04:56:56.430Z,2.90
2019-06-15T04:59:27.001Z,3.00
2019-06-15T05:01:57.399Z,2.80
2019-06-15T05:04:28.506Z,3.00
2019-06-15T05:06:59.213Z,3.13
2019-06-15T05:09:29.925Z,3.10
2019-06-15T05:12:00.790Z,3.00
2019-06-15T05:14:31.597Z,2.83
2019-06-15T05:17:02.368Z,2.80
2019-06-15T05:19:33.314Z,2.90
2019-06-15T05:22:04.350Z,3.20
2019-06-15T05:24:35.269Z,3.30
2019-06-15T05:27:06.780Z,3.10
2019-06-15T05:29:37.361Z,3.07
2019-06-15T05:32:08.098Z,2.87
2019-06-15T05:34:38.902Z,3.00
2019-06-15T05:37:09.582Z,2.90
2019-06-15T05:39:40.045Z,2.90
2019-06-15T05:42:10.830Z,3.00
2019-06-15T05:44:41.638Z,3.03
2019-06-15T05:47:12.789Z,3.00
2019-06-15T05:49:43.849Z,2.90
2019-06-15T05:52:14.712Z,2.90
2019-06-15T05:54:45.373Z,3.00
2019-06-15T05:57:21.612Z,2.73
2019-06-15T05:59:48.637Z,2.53
2019-06-15T06:02:23.905Z,2.90
2019-06-15T06:04:52.717Z,2.67
2019-06-15T06:07:23.517Z,2.30
2019-06-15T06:09:54.321Z,2.30
2019-06-15T06:12:25.157Z,2.20
2019-06-15T06:14:55.989Z,2.40
2019-06-15T06:17:26.643Z,1.90
2019-06-15T06:19:57.673Z,1.90
2019-06-15T06:22:28.566Z,2.37
2019-06-15T06:24:59.342Z,2.10
2019-06-15T06:27:36.525Z,1.73
2019-06-15T06:30:02.274Z,1.97
2019-06-15T06:32:33.094Z,1.90
2019-06-15T06:35:03.811Z,1.60
2019-06-15T06:37:34.472Z,1.53
2019-06-15T06:40:06.669Z,1.50
2019-06-15T06:42:37.353Z,1.50
2019-06-15T06:45:09.592Z,1.63
2019-06-15T06:47:40.345Z,1.60
2019-06-15T06:50:11.677Z,1.60
2019-06-15T06:52:43.060Z,1.70
2019-06-15T06:55:13.962Z,1.50
2019-06-15T06:57:52.664Z,1.60
2019-06-15T07:00:16.996Z,1.47
2019-06-15T07:02:47.506Z,1.50
2019-06-15T07:05:18.279Z,1.30
2019-06-15T07:07:49.093Z,1.07
2019-06-15T07:10:20.072Z,1.17
2019-06-15T07:12:50.558Z,1.30
2019-06-15T07:15:21.313Z,1.40
2019-06-15T07:17:51.941Z,1.40
2019-06-15T07:20:22.676Z,1.33
2019-06-15T07:22:53.536Z,1.53
2019-06-15T07:25:24.191Z,1.20
2019-06-15T07:28:07.536Z,1.30
2019-06-15T07:30:27.960Z,1.10
2019-06-15T07:32:58.545Z,1.20
2019-06-15T07:35:31.134Z,1.30
2019-06-15T07:38:01.921Z,1.00
2019-06-15T07:40:32.569Z,1.40
2019-06-15T07:43:03.331Z,1.23
2019-06-15T07:45:34.131Z,1.27
2019-06-15T07:48:04.834Z,1.50
2019-06-15T07:50:35.580Z,1.30
2019-06-15T07:53:06.329Z,1.30
2019-06-15T07:55:36.965Z,1.27
2019-06-15T07:58:23.395Z,1.10
2019-06-15T08:00:39.938Z,1.10
2019-06-15T08:03:10.652Z,1.10
2019-06-15T08:05:41.197Z,1.10
2019-06-15T08:08:11.973Z,1.20
2019-06-15T08:10:42.572Z,1.27
2019-06-15T08:13:13.373Z,4.60
2019-06-15T08:15:44.162Z,1.80
2019-06-15T08:18:15.018Z,1.33
2019-06-15T08:20:45.627Z,1.20
2019-06-15T08:23:16.384Z,1.27
2019-06-15T08:25:46.978Z,1.10
2019-06-15T08:28:17.779Z,1.17
2019-06-15T08:30:49.237Z,1.20
2019-06-15T08:33:19.923Z,1.30
2019-06-15T08:35:50.755Z,1.50
2019-06-15T08:38:21.517Z,1.10
2019-06-15T08:40:52.317Z,1.30
2019-06-15T08:43:23.078Z,1.27
2019-06-15T08:45:53.911Z,1.13
2019-06-15T08:48:25.786Z,1.20
2019-06-15T08:50:56.914Z,1.23
2019-06-15T08:53:27.429Z,1.20
2019-06-15T08:55:58.126Z,1.30
2019-06-15T08:58:28.793Z,1.50
2019-06-15T09:00:59.384Z,1.50
2019-06-15T09:03:30.118Z,1.37
2019-06-15T09:06:00.827Z,1.40
2019-06-15T09:08:31.650Z,1.50
2019-06-15T09:11:02.067Z,1.23
2019-06-15T09:13:32.799Z,1.70
2019-06-15T09:16:03.497Z,1.50
2019-06-15T09:18:34.565Z,1.43
2019-06-15T09:21:05.364Z,1.50
2019-06-15T09:23:36.177Z,1.37
2019-06-15T09:26:07.073Z,1.50
2019-06-15T09:28:37.842Z,1.43
2019-06-15T09:31:08.445Z,1.60
2019-06-15T09:33:39.251Z,1.43
2019-06-15T09:36:09.852Z,1.50
2019-06-15T09:38:40.575Z,1.73
2019-06-15T09:41:11.366Z,1.57
2019-06-15T09:43:42.271Z,1.60
2019-06-15T09:46:13.018Z,1.43
2019-06-15T09:48:43.979Z,1.40
2019-06-15T09:51:14.810Z,1.50
2019-06-15T09:53:45.430Z,1.50
2019-06-15T09:56:16.184Z,1.40
2019-06-15T09:58:46.981Z,1.50
2019-06-15T10:01:17.837Z,1.40
2019-06-15T10:03:48.337Z,1.20
2019-06-15T10:06:19.081Z,1.37
2019-06-15T10:08:50.024Z,1.40
2019-06-15T10:11:20.623Z,1.60
2019-06-15T10:13:51.258Z,1.40
2019-06-15T10:16:22.204Z,1.57
2019-06-15T10:18:52.857Z,1.80
2019-06-15T10:21:23.558Z,1.70
2019-06-15T10:23:54.240Z,1.60
2019-06-15T10:26:25.062Z,1.40
2019-06-15T10:28:55.898Z,1.60
2019-06-15T10:31:28.231Z,1.70
2019-06-15T10:33:59.042Z,1.50
2019-06-15T10:36:29.851Z,1.60
2019-06-15T10:39:00.601Z,1.60
2019-06-15T10:41:33.055Z,1.50
2019-06-15T10:44:03.653Z,1.70
2019-06-15T10:46:35.330Z,1.53
2019-06-15T10:49:05.906Z,1.60
2019-06-15T10:51:36.482Z,1.37
2019-06-15T10:54:08.160Z,1.80
2019-06-15T10:56:38.805Z,1.87
2019-06-15T10:59:09.831Z,1.90
2019-06-15T11:01:40.469Z,1.80
2019-06-15T11:04:11.234Z,1.40
2019-06-15T11:06:43.262Z,1.87
2019-06-15T11:09:14.117Z,1.80
2019-06-15T11:11:45.100Z,1.90
2019-06-15T11:14:16.985Z,1.90
2019-06-15T11:16:49.344Z,1.60
2019-06-15T11:19:20.151Z,2.10
2019-06-15T11:21:51.077Z,1.90
2019-06-15T11:24:21.960Z,1.90
2019-06-15T11:26:52.735Z,1.70
2019-06-15T11:29:23.390Z,1.73
2019-06-15T11:31:54.006Z,1.93
2019-06-15T11:34:24.871Z,2.00
2019-06-15T11:36:55.566Z,1.53
2019-06-15T11:39:26.301Z,1.70
2019-06-15T11:41:56.958Z,1.97
2019-06-15T11:44:28.613Z,1.90
2019-06-15T11:46:59.417Z,2.00
2019-06-15T11:49:30.154Z,2.00
2019-06-15T11:52:01.130Z,2.10
2019-06-15T11:54:32.233Z,2.10
2019-06-15T11:57:03.079Z,1.80
2019-06-15T11:59:33.725Z,1.77
2019-06-15T12:02:04.561Z,1.80
2019-06-15T12:04:35.494Z,1.70
2019-06-15T12:07:06.454Z,1.77
2019-06-15T12:09:37.123Z,1.90
2019-06-15T12:12:07.781Z,1.63
2019-06-15T12:14:38.633Z,1.80
2019-06-15T12:17:09.278Z,1.67
2019-06-15T12:19:40.356Z,1.80
2019-06-15T12:22:10.797Z,1.93
2019-06-15T12:24:41.722Z,1.90
2019-06-15T12:27:12.362Z,1.83
2019-06-15T12:29:43.045Z,1.90
2019-06-15T12:32:13.998Z,1.80
2019-06-15T12:34:44.766Z,1.90
2019-06-15T12:37:15.543Z,1.70
2019-06-15T12:39:46.158Z,1.60
2019-06-15T12:42:16.918Z,1.70
2019-06-15T12:44:47.757Z,1.80
2019-06-15T12:47:18.373Z,1.77
2019-06-15T12:49:48.956Z,1.60
2019-06-15T12:52:19.510Z,1.53
2019-06-15T12:54:50.490Z,1.80
2019-06-15T12:57:21.142Z,1.87
2019-06-15T12:59:51.843Z,1.77
2019-06-15T13:02:22.443Z,1.60
2019-06-15T13:04:53.218Z,1.67
2019-06-15T13:07:23.813Z,1.50
2019-06-15T13:09:54.362Z,1.60
2019-06-15T13:12:25.114Z,1.70
2019-06-15T13:14:55.963Z,1.67
2019-06-15T13:17:26.645Z,1.70
2019-06-15T13:19:57.419Z,1.90
2019-06-15T13:22:28.199Z,1.70
2019-06-15T13:24:59.030Z,1.80
2019-06-15T13:27:29.951Z,1.60
2019-06-15T13:30:00.691Z,1.60
2019-06-15T13:32:31.510Z,1.67
2019-06-15T13:35:02.414Z,1.70
2019-06-15T13:37:41.984Z,1.70
2019-06-15T13:40:06.595Z,1.60
2019-06-15T13:42:37.363Z,1.27
2019-06-15T13:45:08.413Z,1.63
2019-06-15T13:47:39.365Z,1.50
2019-06-15T13:50:10.579Z,1.60
2019-06-15T13:52:41.426Z,1.80
2019-06-15T13:55:13.733Z,1.50
2019-06-15T13:57:45.405Z,1.50
2019-06-15T14:00:17.833Z,1.47
2019-06-15T14:02:49.097Z,1.80
2019-06-15T14:05:20.202Z,1.80
2019-06-15T14:07:50.919Z,1.60
2019-06-15T14:10:21.752Z,1.60
2019-06-15T14:12:52.643Z,1.73
2019-06-15T14:15:23.211Z,1.70
2019-06-15T14:17:53.949Z,1.70
2019-06-15T14:20:24.879Z,1.53
2019-06-15T14:22:55.395Z,1.53
2019-06-15T14:25:26.160Z,2.00
2019-06-15T14:27:56.993Z,1.60
2019-06-15T14:30:27.971Z,1.70
2019-06-15T14:32:58.766Z,1.53
2019-06-15T14:35:29.562Z,1.60
2019-06-15T14:38:00.332Z,1.47
2019-06-15T14:40:31.194Z,1.60
2019-06-15T14:43:02.066Z,1.73
2019-06-15T14:45:32.873Z,1.57
2019-06-15T14:48:03.722Z,1.30
2019-06-15T14:50:34.576Z,1.50
2019-06-15T14:53:05.362Z,1.50
2019-06-15T14:55:36.749Z,1.87
2019-06-15T14:58:07.339Z,1.57
2019-06-15T15:00:38.195Z,1.50
2019-06-15T15:03:09.344Z,1.80
2019-06-15T15:05:39.999Z,1.60
2019-06-15T15:08:10.506Z,1.53
2019-06-15T15:10:40.998Z,1.50
2019-06-15T15:13:11.850Z,1.60
2019-06-15T15:15:42.774Z,1.83
2019-06-15T15:18:16.205Z,1.90
2019-06-15T15:20:46.157Z,1.60
2019-06-15T15:23:16.867Z,1.70
2019-06-15T15:25:47.826Z,1.70
2019-06-15T15:28:18.842Z,1.90
2019-06-15T15:30:49.595Z,1.73
2019-06-15T15:33:20.102Z,1.90
2019-06-15T15:35:51.029Z,2.10
2019-06-15T15:38:21.465Z,2.30
2019-06-15T15:40:52.556Z,1.97
2019-06-15T15:43:26.368Z,1.93
2019-06-15T15:45:57.561Z,2.00
2019-06-15T15:48:28.190Z,2.23
2019-06-15T15:51:00.929Z,2.50
2019-06-15T15:53:31.076Z,2.87
2019-06-15T15:56:01.860Z,2.50
2019-06-15T15:58:32.679Z,2.63
2019-06-15T16:01:03.545Z,3.90
2019-06-15T16:03:36.765Z,5.63
2019-06-15T16:06:06.743Z,3.70
2019-06-15T16:08:37.327Z,2.70
2019-06-15T16:11:08.093Z,2.40
2019-06-15T16:13:38.739Z,2.57
2019-06-15T16:18:47.131Z,2.40
2019-06-15T16:21:18.008Z,2.50
2019-06-15T16:23:48.774Z,2.00
2019-06-15T16:26:19.570Z,2.00
2019-06-15T16:28:50.481Z,1.93
2019-06-15T16:31:25.969Z,2.03
2019-06-15T16:33:53.602Z,1.80
2019-06-15T16:36:24.463Z,2.20
2019-06-15T16:38:55.710Z,1.87
2019-06-15T16:41:26.217Z,1.80
2019-06-15T16:43:57.126Z,1.80
2019-06-15T16:46:27.561Z,2.00
2019-06-15T16:48:58.139Z,2.27
2019-06-15T16:51:30.159Z,2.10
2019-06-15T16:54:00.736Z,2.53
2019-06-15T16:56:31.498Z,2.27
2019-06-15T16:59:02.148Z,2.37
2019-06-15T17:01:32.963Z,2.37
2019-06-15T17:04:05.983Z,2.17
2019-06-15T17:06:38.689Z,3.50
2019-06-15T17:09:08.838Z,4.03
2019-06-15T17:11:39.463Z,3.90
2019-06-15T17:14:10.418Z,2.80
2019-06-15T17:16:42.166Z,2.70
2019-06-15T17:19:13.061Z,2.80
2019-06-15T17:21:46.565Z,2.60
2019-06-15T17:24:17.295Z,2.00
2019-06-15T17:26:47.986Z,1.83
2019-06-15T17:29:18.844Z,1.80
2019-06-15T17:31:49.507Z,2.10
2019-06-15T17:34:20.149Z,1.80
2019-06-15T17:36:50.821Z,2.10
2019-06-15T17:39:21.303Z,1.90
2019-06-15T17:41:52.173Z,2.03
2019-06-15T17:44:23.347Z,2.20
2019-06-15T17:46:56.376Z,2.20
2019-06-15T17:49:27.058Z,1.97
2019-06-15T17:51:58.807Z,2.13
2019-06-15T17:54:29.626Z,2.30
2019-06-15T17:57:00.305Z,2.07
2019-06-15T17:59:30.970Z,2.00
2019-06-15T18:02:01.841Z,2.17
2019-06-15T18:04:37.088Z,2.30
2019-06-15T18:07:05.953Z,2.20
2019-06-15T18:09:36.868Z,1.90
2019-06-15T18:12:07.663Z,2.10
2019-06-15T18:14:38.456Z,2.00
2019-06-15T18:17:09.101Z,2.37
2019-06-15T18:19:40.139Z,2.30
2019-06-15T18:22:12.545Z,2.20
2019-06-15T18:24:43.134Z,2.20
2019-06-15T18:27:16.738Z,2.20
2019-06-15T18:29:46.564Z,2.37
2019-06-15T18:32:19.838Z,2.10
2019-06-15T18:34:50.443Z,2.43
2019-06-15T18:37:20.989Z,2.20
2019-06-15T18:39:51.774Z,2.00
2019-06-15T18:42:22.649Z,2.37
2019-06-15T18:44:53.423Z,2.80
2019-06-15T18:47:26.578Z,2.10
2019-06-15T18:49:56.435Z,2.20
2019-06-15T18:52:27.469Z,2.50
2019-06-15T18:54:58.101Z,2.57
2019-06-15T18:57:28.693Z,2.00
2019-06-15T18:59:59.701Z,2.10
2019-06-15T19:02:31.836Z,1.77
2019-06-15T19:05:02.404Z,2.10
2019-06-15T19:07:33.207Z,2.10
2019-06-15T19:10:07.019Z,1.80
2019-06-15T19:12:36.563Z,2.30
2019-06-15T19:15:07.566Z,2.40
2019-06-15T19:17:38.425Z,2.50
2019-06-15T19:20:09.458Z,2.63
2019-06-15T19:22:40.108Z,3.17
2019-06-15T19:25:11.112Z,3.00
2019-06-15T19:27:41.991Z,2.80
2019-06-15T19:30:12.897Z,3.00
2019-06-15T19:32:46.262Z,2.73
2019-06-15T19:35:36.530Z,2.80
2019-06-15T19:38:07.458Z,3.00
2019-06-15T19:40:38.258Z,2.47
2019-06-15T19:43:09.133Z,2.60
2019-06-15T19:45:39.938Z,2.50
2019-06-15T19:48:10.770Z,2.93
2019-06-15T19:50:41.598Z,3.23
2019-06-15T19:53:12.262Z,3.10
2019-06-15T19:55:42.978Z,4.07
2019-06-15T19:58:16.201Z,3.30
2019-06-15T20:00:46.744Z,2.90
2019-06-15T20:03:17.957Z,3.17
2019-06-15T20:05:48.803Z,3.50
2019-06-15T20:08:19.414Z,3.17
2019-06-15T20:10:50.047Z,2.83
2019-06-15T20:13:20.622Z,3.20
2019-06-15T20:15:51.405Z,2.80
2019-06-15T20:18:21.854Z,2.80
2019-06-15T20:20:52.357Z,2.63
2019-06-15T20:23:23.189Z,2.63
2019-06-15T20:25:55.866Z,2.40
2019-06-15T20:28:27.278Z,2.60
2019-06-15T20:30:58.139Z,2.60
2019-06-15T20:33:29.924Z,3.10
2019-06-15T20:36:00.453Z,2.77
2019-06-15T20:38:31.545Z,2.60
2019-06-15T20:41:02.186Z,2.60
2019-06-15T20:43:33.018Z,2.80
2019-06-15T20:46:03.719Z,2.33
2019-06-15T20:48:36.273Z,2.30
2019-06-15T20:51:10.177Z,2.40
2019-06-15T20:53:39.457Z,2.30
2019-06-15T20:56:09.874Z,2.20
2019-06-15T20:58:40.581Z,2.30
2019-06-15T21:01:11.328Z,2.33
2019-06-15T21:03:43.158Z,2.83
2019-06-15T21:06:16.707Z,2.53
2019-06-15T21:08:46.925Z,3.00
2019-06-15T21:11:17.921Z,2.73
2019-06-15T21:13:48.570Z,2.93
2019-06-15T21:16:19.596Z,2.90
2019-06-15T21:18:50.456Z,3.10
2019-06-15T21:21:21.306Z,3.63
2019-06-15T21:23:51.908Z,2.77
2019-06-15T21:26:22.477Z,2.70
2019-06-15T21:28:52.986Z,2.60
2019-06-15T21:31:26.039Z,2.50
2019-06-15T21:33:56.122Z,2.53
2019-06-15T21:36:26.606Z,2.77
2019-06-15T21:38:57.009Z,2.53
2019-06-15T21:41:27.414Z,2.80
2019-06-15T21:43:58.991Z,2.83
2019-06-15T21:46:29.398Z,2.73
2019-06-15T21:48:59.849Z,3.00
2019-06-15T21:51:30.274Z,2.80
2019-06-15T21:54:00.793Z,2.63
2019-06-15T21:56:31.325Z,2.60
2019-06-15T21:59:01.822Z,2.70
2019-06-15T22:01:37.237Z,3.00
2019-06-15T22:04:07.191Z,2.37
2019-06-15T22:06:37.890Z,2.43
2019-06-15T22:09:13.071Z,2.80
2019-06-15T22:11:46.942Z,2.87
2019-06-15T22:14:17.247Z,2.70
2019-06-15T22:16:48.056Z,2.60
2019-06-15T22:19:18.469Z,2.40
2019-06-15T22:21:49.105Z,2.77
2019-06-15T22:24:20.535Z,2.70
2019-06-15T22:26:51.155Z,2.60
2019-06-15T22:29:22.363Z,2.47
2019-06-15T22:31:55.946Z,2.90
2019-06-15T22:34:25.529Z,2.83
2019-06-15T22:36:57.521Z,2.93
2019-06-15T22:39:39.440Z,2.50
2019-06-15T22:42:09.965Z,2.73
2019-06-15T22:44:40.542Z,2.50
2019-06-15T22:47:11.265Z,2.87
2019-06-15T22:49:41.890Z,2.40
2019-06-15T22:52:12.341Z,2.90
2019-06-15T22:54:43.254Z,2.50
2019-06-15T22:57:13.669Z,2.80
2019-06-15T22:59:46.175Z,2.50
2019-06-15T23:02:16.837Z,2.80
2019-06-15T23:04:47.346Z,2.60
2019-06-15T23:07:17.763Z,2.87
2019-06-15T23:09:48.192Z,2.80
2019-06-15T23:12:18.597Z,2.90
2019-06-15T23:14:49.170Z,2.90
2019-06-15T23:17:19.603Z,3.00
2019-06-15T23:19:50.030Z,2.73
2019-06-15T23:22:20.439Z,2.90
2019-06-15T23:24:50.878Z,2.80
2019-06-15T23:27:21.297Z,2.90
2019-06-15T23:29:51.742Z,2.90
2019-06-15T23:32:22.290Z,2.40
2019-06-15T23:34:53.203Z,2.67
2019-06-15T23:37:23.778Z,2.57
2019-06-15T23:40:11.841Z,2.80
2019-06-15T23:42:42.318Z,3.00
2019-06-15T23:45:15.972Z,2.80
2019-06-15T23:47:46.803Z,3.17
2019-06-15T23:50:19.930Z,3.00
2019-06-15T23:52:50.442Z,3.33
2019-06-15T23:55:21.582Z,3.50
2019-06-15T23:57:52.007Z,3.30
